Time;durP1;ratioP1;P1;durP2;ratioP2;P2;SDS_P1;SDS_P2;PMS_P1;PMS_P2;Temp;Humidity;BMP_temperature;BMP_pressure;BME280_temperature;BME280_humidity;BME280_pressure;Samples;Min_cycle;Max_cycle;Signal;HPM_P1;HPM_P2
2022/11/30 00:00:16;;;;;;;;;;;4.50;99.90;;;;;;5012396;28;20024;-78
2022/11/30 00:02:42;;;;;;;;;;;4.50;99.90;;;;;;5011889;28;19910;-82
2022/11/30 00:05:08;;;;;;;;;;;4.50;99.90;;;;;;5011936;28;19909;-77
2022/11/30 00:07:33;;;;;;;;;;;4.50;99.90;;;;;;5012094;28;19936;-77
2022/11/30 00:09:59;;;;;;;;;;;4.50;99.90;;;;;;5011731;28;19968;-77
2022/11/30 00:12:24;;;;;;;;;;;4.50;99.90;;;;;;5010797;28;20314;-78
2022/11/30 00:14:50;;;;;;;;;;;4.40;99.90;;;;;;5010510;28;19913;-78
2022/11/30 00:17:16;;;;;;;;;;;4.40;99.90;;;;;;5011638;28;19909;-78
2022/11/30 00:19:41;;;;;;;;;;;4.40;99.90;;;;;;5011716;28;19909;-79
2022/11/30 00:22:07;;;;;;;;;;;4.40;99.90;;;;;;5012431;28;20359;-78
2022/11/30 00:24:32;;;;;;;;;;;4.30;99.90;;;;;;5011733;28;19921;-78
2022/11/30 00:26:58;;;;;;;;;;;4.30;99.90;;;;;;5010174;28;19913;-78
2022/11/30 00:29:24;;;;;;;;;;;4.30;99.90;;;;;;5011606;28;19999;-77
2022/11/30 00:31:49;;;;;;;;;;;4.30;99.90;;;;;;5010935;28;20028;-78
2022/11/30 00:34:15;;;;;;;;;;;4.20;99.90;;;;;;5011983;28;19949;-78
2022/11/30 00:36:40;;;;;;;;;;;4.20;99.90;;;;;;5011276;28;19909;-82
2022/11/30 00:39:06;;;;;;;;;;;4.20;99.90;;;;;;5011814;28;20309;-78
2022/11/30 00:41:31;;;;;;;;;;;4.10;99.90;;;;;;5011759;28;19986;-78
2022/11/30 00:43:57;;;;;;;;;;;4.10;99.90;;;;;;5010588;28;20000;-78
2022/11/30 00:46:22;;;;;;;;;;;4.10;99.90;;;;;;5011360;28;19917;-77
2022/11/30 00:48:48;;;;;;;;;;;4.10;99.90;;;;;;5011071;28;20310;-77
2022/11/30 00:51:14;;;;;;;;;;;4.00;99.90;;;;;;5011449;28;19916;-78
2022/11/30 00:53:40;;;;;;;;;;;4.10;99.90;;;;;;5011406;28;20427;-81
2022/11/30 00:56:06;;;;;;;;;;;4.00;99.90;;;;;;5011351;28;19921;-77
2022/11/30 00:58:32;;;;;;;;;;;4.00;99.90;;;;;;5011477;28;19964;-78
2022/11/30 01:00:57;;;;;;;;;;;4.00;99.90;;;;;;5010964;28;20003;-77
2022/11/30 01:03:23;;;;;;;;;;;3.90;99.90;;;;;;5011525;28;20005;-76
2022/11/30 01:05:48;;;;;;;;;;;3.90;99.90;;;;;;5010848;28;19913;-76
2022/11/30 01:08:14;;;;;;;;;;;3.90;99.90;;;;;;5011241;28;20024;-77
2022/11/30 01:10:40;;;;;;;;;;;3.90;99.90;;;;;;5011161;28;19967;-82
2022/11/30 01:13:06;;;;;;;;;;;3.90;99.90;;;;;;5011022;28;19914;-77
2022/11/30 01:15:35;;;;;;;;;;;3.90;99.90;;;;;;5011634;28;19910;-76
2022/11/30 01:18:01;;;;;;;;;;;4.00;99.90;;;;;;5010463;28;19968;-76
2022/11/30 01:20:26;;;;;;;;;;;3.90;99.90;;;;;;5011433;28;19913;-78
2022/11/30 01:22:53;;;;;;;;;;;3.90;99.90;;;;;;5011109;28;19916;-78
2022/11/30 01:25:19;;;;;;;;;;;3.90;99.90;;;;;;5011368;28;19999;-78
2022/11/30 01:27:47;;;;;;;;;;;3.90;99.90;;;;;;5009345;28;20012;-78
2022/11/30 01:30:12;;;;;;;;;;;3.90;99.90;;;;;;5010888;28;19921;-78
2022/11/30 01:32:38;;;;;;;;;;;3.90;99.90;;;;;;5010981;28;20275;-78
2022/11/30 01:35:04;;;;;;;;;;;3.90;99.90;;;;;;5010686;28;19909;-78
2022/11/30 01:37:29;;;;;;;;;;;3.80;99.90;;;;;;5011057;28;19918;-78
2022/11/30 01:39:55;;;;;;;;;;;3.80;99.90;;;;;;5010754;28;19913;-78
2022/11/30 01:42:20;;;;;;;;;;;3.70;99.90;;;;;;5010879;28;20347;-79
2022/11/30 01:44:53;;;;;;;;;;;3.80;99.90;;;;;;5010595;28;19909;-78
2022/11/30 01:47:21;;;;;;;;;;;3.80;99.90;;;;;;5010765;28;20030;-76
2022/11/30 01:49:48;;;;;;;;;;;3.80;99.90;;;;;;5010462;28;19987;-77
2022/11/30 01:52:17;;;;;;;;;;;3.80;99.90;;;;;;5010738;28;20326;-76
2022/11/30 01:54:52;;;;;;;;;;;3.80;99.90;;;;;;5010363;28;20309;-78
2022/11/30 01:57:23;;;;;;;;;;;3.80;99.90;;;;;;5013425;28;19910;-77
2022/11/30 01:59:50;;;;;;;;;;;3.70;99.90;;;;;;5014187;28;19913;-76
2022/11/30 02:02:19;;;;;;;;;;;3.70;99.90;;;;;;5015144;28;19910;-78
2022/11/30 02:04:44;;;;;;;;;;;3.70;99.90;;;;;;5014067;28;19909;-79
2022/11/30 02:07:10;;;;;;;;;;;3.70;99.90;;;;;;5015022;28;20258;-77
2022/11/30 02:09:40;;;;;;;;;;;3.70;99.90;;;;;;5014851;28;19910;-78
2022/11/30 02:12:07;;;;;;;;;;;3.60;99.90;;;;;;5014912;28;20343;-77
2022/11/30 02:14:35;;;;;;;;;;;3.70;99.90;;;;;;5014872;28;19909;-77
2022/11/30 02:17:03;;;;;;;;;;;3.60;99.90;;;;;;5014184;28;20011;-77
2022/11/30 02:19:49;;;;;;;;;;;3.60;99.90;;;;;;5014208;28;19920;-78
2022/11/30 02:22:18;;;;;;;;;;;3.60;99.90;;;;;;5014525;28;19910;-78
2022/11/30 02:24:52;;;;;;;;;;;3.60;99.90;;;;;;5014311;28;19910;-81
2022/11/30 02:27:20;;;;;;;;;;;3.60;99.90;;;;;;5018237;28;19924;-77
2022/11/30 02:29:48;;;;;;;;;;;3.60;99.90;;;;;;5017459;28;19921;-79
2022/11/30 02:32:21;;;;;;;;;;;3.50;99.90;;;;;;5018019;28;20344;-77
2022/11/30 02:34:47;;;;;;;;;;;3.60;99.90;;;;;;5017719;28;19910;-79
2022/11/30 02:37:13;;;;;;;;;;;3.50;99.90;;;;;;5016711;28;20295;-78
2022/11/30 02:39:39;;;;;;;;;;;3.50;99.90;;;;;;5016840;28;20004;-78
2022/11/30 02:42:12;;;;;;;;;;;3.50;99.90;;;;;;5016160;28;20155;-78
2022/11/30 02:44:38;;;;;;;;;;;3.50;99.90;;;;;;5015500;28;19916;-79
2022/11/30 02:47:07;;;;;;;;;;;3.50;99.90;;;;;;5014192;28;20095;-78
2022/11/30 02:49:44;;;;;;;;;;;3.50;99.90;;;;;;5014326;28;19941;-79
2022/11/30 02:52:10;;;;;;;;;;;3.50;99.90;;;;;;5015220;28;19921;-79
2022/11/30 02:54:36;;;;;;;;;;;3.50;99.90;;;;;;5014649;28;19937;-78
2022/11/30 02:57:01;;;;;;;;;;;3.50;99.90;;;;;;5013578;28;20024;-79
2022/11/30 02:59:27;;;;;;;;;;;3.50;99.90;;;;;;5012651;28;19971;-79
2022/11/30 03:01:53;;;;;;;;;;;3.40;99.90;;;;;;5013801;28;19910;-78
2022/11/30 03:04:18;;;;;;;;;;;3.40;99.90;;;;;;5013913;28;19921;-78
2022/11/30 03:06:44;;;;;;;;;;;3.40;99.90;;;;;;5013181;28;19952;-79
2022/11/30 03:09:09;;;;;;;;;;;3.40;99.90;;;;;;5013470;28;19953;-78
2022/11/30 03:11:35;;;;;;;;;;;3.40;99.90;;;;;;5014060;28;19916;-78
2022/11/30 03:14:01;;;;;;;;;;;3.40;99.90;;;;;;5013554;28;19909;-78
2022/11/30 03:16:27;;;;;;;;;;;3.40;99.90;;;;;;5014100;28;19916;-78
2022/11/30 03:18:53;;;;;;;;;;;3.40;99.90;;;;;;5013818;28;20279;-79
2022/11/30 03:21:18;;;;;;;;;;;3.40;99.90;;;;;;5013710;28;19910;-79
2022/11/30 03:23:44;;;;;;;;;;;3.40;99.90;;;;;;5013365;28;20050;-79
2022/11/30 03:26:09;;;;;;;;;;;3.30;99.90;;;;;;5012950;28;20398;-79
2022/11/30 03:28:35;;;;;;;;;;;3.30;99.90;;;;;;5012341;28;19917;-79
2022/11/30 03:31:01;;;;;;;;;;;3.30;99.90;;;;;;5012622;28;20012;-79
2022/11/30 03:33:26;;;;;;;;;;;3.30;99.90;;;;;;5013828;28;19956;-79
2022/11/30 03:35:59;;;;;;;;;;;3.30;99.90;;;;;;5011680;28;19909;-79
2022/11/30 03:38:25;;;;;;;;;;;3.30;99.90;;;;;;5013380;28;19909;-78
2022/11/30 03:40:57;;;;;;;;;;;3.30;99.90;;;;;;5012854;28;20359;-79
2022/11/30 03:43:23;;;;;;;;;;;3.20;99.90;;;;;;5013185;28;19916;-78
2022/11/30 03:45:48;;;;;;;;;;;3.20;99.90;;;;;;5012884;28;19913;-80
2022/11/30 03:48:14;;;;;;;;;;;3.20;99.90;;;;;;5012727;28;19924;-78
2022/11/30 03:50:40;;;;;;;;;;;3.30;99.90;;;;;;5013763;28;19993;-78
2022/11/30 03:53:06;;;;;;;;;;;3.30;99.90;;;;;;5013536;28;20326;-78
2022/11/30 03:55:32;;;;;;;;;;;3.10;99.90;;;;;;5013983;28;19909;-78
2022/11/30 03:57:57;;;;;;;;;;;3.10;99.90;;;;;;5013535;28;20309;-79
2022/11/30 04:00:23;;;;;;;;;;;3.10;99.90;;;;;;5013843;28;19955;-77
2022/11/30 04:02:48;;;;;;;;;;;3.10;99.90;;;;;;5013508;28;19953;-81
2022/11/30 04:05:14;;;;;;;;;;;3.10;99.90;;;;;;5013842;28;19936;-78
2022/11/30 04:07:39;;;;;;;;;;;3.10;99.90;;;;;;5013712;28;19922;-78
2022/11/30 04:10:05;;;;;;;;;;;3.10;99.90;;;;;;5013073;28;19964;-77
2022/11/30 04:12:31;;;;;;;;;;;3.10;99.90;;;;;;5013521;28;20325;-78
2022/11/30 04:14:56;;;;;;;;;;;3.10;99.90;;;;;;5013555;28;19909;-78
2022/11/30 04:17:22;;;;;;;;;;;3.10;99.90;;;;;;5013556;28;20319;-78
2022/11/30 04:19:47;;;;;;;;;;;3.10;99.90;;;;;;5013294;28;19972;-76
2022/11/30 04:22:13;;;;;;;;;;;3.10;99.90;;;;;;5011981;28;20318;-77
2022/11/30 04:24:39;;;;;;;;;;;3.20;99.90;;;;;;5012371;28;19936;-77
2022/11/30 04:27:04;;;;;;;;;;;3.10;99.90;;;;;;5012142;28;20059;-79
2022/11/30 04:29:30;;;;;;;;;;;3.10;99.90;;;;;;5011725;28;19929;-77
2022/11/30 04:31:55;;;;;;;;;;;3.10;99.90;;;;;;5012057;28;19928;-78
2022/11/30 04:34:21;;;;;;;;;;;3.10;99.90;;;;;;5012234;28;19968;-77
2022/11/30 04:36:47;;;;;;;;;;;3.20;99.90;;;;;;5010849;28;19916;-78
2022/11/30 04:39:12;;;;;;;;;;;3.20;99.90;;;;;;5011901;28;20001;-77
2022/11/30 04:41:38;;;;;;;;;;;3.20;99.90;;;;;;5012333;28;20399;-77
2022/11/30 04:44:04;;;;;;;;;;;3.20;99.90;;;;;;5011522;28;19963;-77
2022/11/30 04:46:29;;;;;;;;;;;3.20;99.90;;;;;;5011556;28;19917;-75
2022/11/30 04:48:55;;;;;;;;;;;3.20;99.90;;;;;;5011717;28;19914;-77
2022/11/30 04:51:20;;;;;;;;;;;3.20;99.90;;;;;;5012439;28;19909;-76
2022/11/30 04:53:46;;;;;;;;;;;3.20;99.90;;;;;;5012301;28;19915;-76
2022/11/30 04:56:12;;;;;;;;;;;3.20;99.90;;;;;;5010536;28;20414;-76
2022/11/30 04:58:37;;;;;;;;;;;3.20;99.90;;;;;;5012621;28;19976;-76
2022/11/30 05:01:03;;;;;;;;;;;3.20;99.90;;;;;;5011745;28;20242;-76
2022/11/30 05:03:29;;;;;;;;;;;3.20;99.90;;;;;;5012125;28;20347;-76
2022/11/30 05:05:54;;;;;;;;;;;3.20;99.90;;;;;;5011674;28;19910;-80
2022/11/30 05:08:20;;;;;;;;;;;3.10;99.90;;;;;;5012042;28;20012;-78
2022/11/30 05:10:50;;;;;;;;;;;3.10;99.90;;;;;;5012170;28;19917;-77
2022/11/30 05:13:16;;;;;;;;;;;3.10;99.90;;;;;;5011338;28;19916;-77
2022/11/30 05:15:41;;;;;;;;;;;3.00;99.90;;;;;;5010537;28;19910;-77
2022/11/30 05:18:07;;;;;;;;;;;3.00;99.90;;;;;;5011462;28;19910;-77
2022/11/30 05:20:32;;;;;;;;;;;2.90;99.90;;;;;;5011744;28;20007;-77
2022/11/30 05:22:58;;;;;;;;;;;2.90;99.90;;;;;;5010951;28;19909;-78
2022/11/30 05:25:23;;;;;;;;;;;2.90;99.90;;;;;;5011453;28;20004;-78
2022/11/30 05:27:49;;;;;;;;;;;2.90;99.90;;;;;;5011852;28;19921;-78
2022/11/30 05:30:15;;;;;;;;;;;2.90;99.90;;;;;;5010693;28;20564;-78
2022/11/30 05:32:40;;;;;;;;;;;2.90;99.90;;;;;;5011396;28;19916;-77
2022/11/30 05:35:06;;;;;;;;;;;2.90;99.90;;;;;;5011593;28;20216;-78
2022/11/30 05:37:31;;;;;;;;;;;3.00;99.90;;;;;;5011591;28;20036;-78
2022/11/30 05:39:57;;;;;;;;;;;3.00;99.90;;;;;;5010821;28;20434;-81
2022/11/30 05:42:23;;;;;;;;;;;3.00;99.90;;;;;;5011726;28;19916;-75
2022/11/30 05:44:48;;;;;;;;;;;3.00;99.90;;;;;;5011263;28;20278;-77
2022/11/30 05:47:14;;;;;;;;;;;3.00;99.90;;;;;;5009461;28;20362;-77
2022/11/30 05:49:39;;;;;;;;;;;3.00;99.90;;;;;;5011233;28;20004;-77
2022/11/30 05:52:05;;;;;;;;;;;3.00;99.90;;;;;;5010645;28;19910;-78
2022/11/30 05:54:32;;;;;;;;;;;3.00;99.90;;;;;;5011402;28;19909;-78
2022/11/30 05:56:57;;;;;;;;;;;3.00;99.90;;;;;;5010666;28;20049;-81
2022/11/30 05:59:23;;;;;;;;;;;3.00;99.90;;;;;;5009836;28;20000;-78
2022/11/30 06:01:50;;;;;;;;;;;3.10;99.90;;;;;;5011545;28;19909;-78
2022/11/30 06:04:15;;;;;;;;;;;3.10;99.90;;;;;;5010904;28;20015;-79
2022/11/30 06:06:41;;;;;;;;;;;3.10;99.90;;;;;;5010049;28;19966;-78
2022/11/30 06:09:07;;;;;;;;;;;3.10;99.90;;;;;;5011218;28;19909;-79
2022/11/30 06:11:32;;;;;;;;;;;3.10;99.90;;;;;;5011206;28;19939;-78
2022/11/30 06:13:58;;;;;;;;;;;3.10;99.90;;;;;;5011021;28;19982;-81
2022/11/30 06:16:23;;;;;;;;;;;3.10;99.90;;;;;;5011260;28;20374;-78
2022/11/30 06:18:49;;;;;;;;;;;3.10;99.90;;;;;;5011429;28;20044;-78
2022/11/30 06:21:14;;;;;;;;;;;3.10;99.90;;;;;;5010613;28;19917;-78
2022/11/30 06:23:40;;;;;;;;;;;3.20;99.90;;;;;;5010837;28;20355;-78
2022/11/30 06:26:07;;;;;;;;;;;3.20;99.90;;;;;;5010693;28;19917;-79
2022/11/30 06:28:33;;;;;;;;;;;3.20;99.90;;;;;;5011321;28;19933;-79
2022/11/30 06:30:59;;;;;;;;;;;3.20;99.90;;;;;;5010965;28;20027;-82
2022/11/30 06:33:24;;;;;;;;;;;3.20;99.90;;;;;;5010897;28;19956;-77
2022/11/30 06:35:50;;;;;;;;;;;3.10;99.90;;;;;;5009174;28;20267;-78
2022/11/30 06:38:16;;;;;;;;;;;3.10;99.90;;;;;;5009141;28;19909;-77
2022/11/30 06:40:41;;;;;;;;;;;3.10;99.90;;;;;;5010870;28;20004;-78
2022/11/30 06:43:07;;;;;;;;;;;3.10;99.90;;;;;;5012437;28;19909;-78
2022/11/30 06:45:32;;;;;;;;;;;3.10;99.90;;;;;;5014956;28;19989;-78
2022/11/30 06:47:58;;;;;;;;;;;3.10;99.90;;;;;;5014447;28;20026;-77
2022/11/30 06:50:24;;;;;;;;;;;3.10;99.90;;;;;;5012387;28;19945;-78
2022/11/30 06:52:49;;;;;;;;;;;3.20;99.90;;;;;;5013672;28;19913;-79
2022/11/30 06:55:15;;;;;;;;;;;3.20;99.90;;;;;;5013605;28;19910;-78
2022/11/30 06:57:41;;;;;;;;;;;3.10;99.90;;;;;;5013705;28;20378;-77
2022/11/30 07:00:07;;;;;;;;;;;3.20;99.90;;;;;;5013635;28;19985;-78
2022/11/30 07:02:33;;;;;;;;;;;3.20;99.90;;;;;;5014021;28;19921;-78
2022/11/30 07:04:58;;;;;;;;;;;3.20;99.90;;;;;;5013612;28;20012;-78
2022/11/30 07:07:24;;;;;;;;;;;3.10;99.90;;;;;;5011974;28;19980;-78
2022/11/30 07:09:50;;;;;;;;;;;3.10;99.90;;;;;;5014028;28;19916;-78
2022/11/30 07:12:16;;;;;;;;;;;3.20;99.90;;;;;;5014862;28;19932;-78
2022/11/30 07:14:42;;;;;;;;;;;3.20;99.90;;;;;;5014683;28;19910;-78
2022/11/30 07:17:07;;;;;;;;;;;3.20;99.90;;;;;;5014231;28;19910;-78
2022/11/30 07:19:33;;;;;;;;;;;3.20;99.90;;;;;;5014592;28;19952;-78
2022/11/30 07:21:58;;;;;;;;;;;3.20;99.90;;;;;;5012855;28;19963;-78
2022/11/30 07:27:08;;;;;;;;;;;3.20;99.90;;;;;;5013124;28;20005;-78
2022/11/30 07:29:34;;;;;;;;;;;3.10;99.90;;;;;;5013364;28;20323;-78
2022/11/30 07:32:00;;;;;;;;;;;3.10;99.90;;;;;;5013797;28;19910;-77
2022/11/30 07:34:25;;;;;;;;;;;3.10;99.90;;;;;;5011577;28;20405;-78
2022/11/30 07:36:51;;;;;;;;;;;3.10;99.90;;;;;;5013242;28;20004;-78
2022/11/30 07:39:16;;;;;;;;;;;3.10;99.90;;;;;;5013295;28;19916;-78
2022/11/30 07:41:42;;;;;;;;;;;3.00;99.90;;;;;;5013228;28;19983;-76
2022/11/30 07:44:08;;;;;;;;;;;3.00;99.90;;;;;;5012496;28;19932;-77
2022/11/30 07:46:34;;;;;;;;;;;3.00;99.90;;;;;;5012610;28;19922;-76
2022/11/30 07:49:00;;;;;;;;;;;3.00;99.90;;;;;;5012976;28;19916;-77
2022/11/30 07:51:26;;;;;;;;;;;3.00;99.90;;;;;;5012445;28;19948;-78
2022/11/30 07:53:54;;;;;;;;;;;3.00;99.90;;;;;;5010958;28;19945;-78
2022/11/30 07:56:20;;;;;;;;;;;3.00;99.90;;;;;;5012571;28;19919;-77
2022/11/30 07:58:45;;;;;;;;;;;3.00;99.90;;;;;;5012883;28;19920;-77
2022/11/30 08:01:13;;;;;;;;;;;3.00;99.90;;;;;;5010570;28;19979;-78
2022/11/30 08:03:38;;;;;;;;;;;3.00;99.90;;;;;;5013026;28;20008;-77
2022/11/30 08:06:06;;;;;;;;;;;3.10;99.90;;;;;;5011152;28;20413;-81
2022/11/30 08:08:32;;;;;;;;;;;3.10;99.90;;;;;;5012619;28;19944;-78
2022/11/30 08:10:58;;;;;;;;;;;3.10;99.90;;;;;;5012586;28;19932;-78
2022/11/30 08:13:24;;;;;;;;;;;3.10;99.90;;;;;;5012301;28;19936;-78
2022/11/30 08:15:50;;;;;;;;;;;3.10;99.90;;;;;;5012816;28;20267;-79
2022/11/30 08:18:16;;;;;;;;;;;3.20;99.90;;;;;;5012291;28;19920;-77
2022/11/30 08:20:41;;;;;;;;;;;3.20;99.90;;;;;;5012274;28;19928;-76
2022/11/30 08:23:07;;;;;;;;;;;3.20;99.90;;;;;;5011873;28;19920;-79
2022/11/30 08:25:33;;;;;;;;;;;3.20;99.90;;;;;;5012020;28;19997;-77
2022/11/30 08:27:58;;;;;;;;;;;3.30;99.90;;;;;;5011761;28;19965;-77
2022/11/30 08:30:24;;;;;;;;;;;3.30;99.90;;;;;;5011368;28;20311;-77
2022/11/30 08:32:50;;;;;;;;;;;3.40;99.90;;;;;;5011707;28;19909;-76
2022/11/30 08:35:16;;;;;;;;;;;3.50;99.90;;;;;;5012346;28;20021;-77
2022/11/30 08:37:41;;;;;;;;;;;3.50;99.90;;;;;;5011641;28;20037;-77
2022/11/30 08:40:07;;;;;;;;;;;3.60;99.90;;;;;;5011900;28;19910;-80
2022/11/30 08:42:33;;;;;;;;;;;3.70;99.90;;;;;;5012383;28;20255;-76
2022/11/30 08:44:58;;;;;;;;;;;3.70;99.90;;;;;;5011984;28;19932;-76
2022/11/30 08:47:24;;;;;;;;;;;3.80;99.90;;;;;;5011542;28;20074;-76
2022/11/30 08:49:51;;;;;;;;;;;3.80;99.90;;;;;;5011871;28;20232;-76
2022/11/30 08:52:17;;;;;;;;;;;3.90;99.90;;;;;;5011592;28;19910;-77
2022/11/30 08:54:45;;;;;;;;;;;4.00;99.90;;;;;;5012093;28;19914;-77
2022/11/30 08:57:11;;;;;;;;;;;4.10;99.90;;;;;;5011347;28;20240;-78
2022/11/30 08:59:37;;;;;;;;;;;4.20;99.90;;;;;;5011579;28;19960;-76
2022/11/30 09:02:02;;;;;;;;;;;4.20;99.90;;;;;;5010365;28;19932;-77
2022/11/30 09:04:28;;;;;;;;;;;4.30;99.90;;;;;;5010725;28;20135;-77
2022/11/30 09:06:57;;;;;;;;;;;4.40;99.90;;;;;;5011895;28;19917;-78
2022/11/30 09:09:23;;;;;;;;;;;4.50;99.90;;;;;;5011386;28;19976;-78
2022/11/30 09:11:49;;;;;;;;;;;4.60;99.90;;;;;;5012152;28;19912;-78
2022/11/30 09:14:14;;;;;;;;;;;4.70;99.90;;;;;;5011823;28;19917;-78
2022/11/30 09:16:40;;;;;;;;;;;4.80;99.90;;;;;;5013182;28;19909;-79
2022/11/30 09:19:05;;;;;;;;;;;4.90;99.90;;;;;;5010139;28;19943;-81
2022/11/30 09:21:31;;;;;;;;;;;4.90;99.90;;;;;;5011942;28;19906;-78
2022/11/30 09:23:57;;;;;;;;;;;5.00;99.90;;;;;;5010330;28;19909;-79
2022/11/30 09:26:24;;;;;;;;;;;5.00;99.90;;;;;;5010517;28;19920;-78
2022/11/30 09:28:50;;;;;;;;;;;5.10;99.90;;;;;;5011021;28;19967;-78
2022/11/30 09:31:20;;;;;;;;;;;5.20;99.90;;;;;;5011027;28;19922;-78
2022/11/30 09:33:46;;;;;;;;;;;5.20;99.90;;;;;;5011426;28;19928;-77
2022/11/30 09:36:13;;;;;;;;;;;5.30;99.90;;;;;;5011163;28;19917;-80
2022/11/30 09:38:41;;;;;;;;;;;5.40;99.90;;;;;;5011417;28;19956;-78
2022/11/30 09:41:25;;;;;;;;;;;5.50;99.90;;;;;;5011387;28;19952;-79
2022/11/30 09:44:09;;;;;;;;;;;5.60;99.90;;;;;;5011701;28;20452;-78
2022/11/30 09:46:44;;;;;;;;;;;5.60;99.90;;;;;;5010988;28;19916;-78
2022/11/30 09:49:26;;;;;;;;;;;5.70;99.90;;;;;;5011186;28;19941;-80
2022/11/30 09:51:54;;;;;;;;;;;5.70;99.90;;;;;;5011394;28;20020;-78
2022/11/30 09:54:39;;;;;;;;;;;5.80;99.90;;;;;;5011146;28;20260;-78
2022/11/30 09:57:24;;;;;;;;;;;5.80;99.90;;;;;;5009307;28;19910;-77
2022/11/30 09:59:57;;;;;;;;;;;5.90;99.90;;;;;;5011281;28;19913;-78
2022/11/30 10:02:30;;;;;;;;;;;6.00;99.90;;;;;;5010021;28;20274;-78
2022/11/30 10:04:56;;;;;;;;;;;6.00;99.90;;;;;;5011146;28;19920;-79
2022/11/30 10:07:28;;;;;;;;;;;6.10;99.90;;;;;;5010564;28;19972;-79
2022/11/30 10:09:53;;;;;;;;;;;6.20;99.90;;;;;;5009972;28;20438;-79
2022/11/30 10:12:30;;;;;;;;;;;6.20;99.90;;;;;;5010719;28;19953;-79
2022/11/30 10:15:05;;;;;;;;;;;6.30;99.90;;;;;;5011539;28;19914;-78
2022/11/30 10:17:37;;;;;;;;;;;6.40;99.90;;;;;;5013638;28;19960;-78
2022/11/30 10:20:11;;;;;;;;;;;6.50;99.90;;;;;;5014398;28;19910;-79
2022/11/30 10:22:47;;;;;;;;;;;6.50;99.90;;;;;;5013016;28;19940;-80
2022/11/30 10:25:22;;;;;;;;;;;6.60;99.90;;;;;;5014264;28;20008;-81
2022/11/30 10:27:49;;;;;;;;;;;6.70;99.90;;;;;;5014201;28;19917;-78
2022/11/30 10:30:17;;;;;;;;;;;6.70;99.90;;;;;;5013496;28;19922;-78
2022/11/30 10:32:44;;;;;;;;;;;6.70;99.90;;;;;;5014709;28;19925;-78
2022/11/30 10:35:30;;;;;;;;;;;6.80;99.90;;;;;;5015348;28;19921;-78
2022/11/30 10:37:56;;;;;;;;;;;6.80;99.90;;;;;;5007471;28;20259;-79
2022/11/30 10:40:28;;;;;;;;;;;6.90;99.90;;;;;;5014850;28;20263;-79
2022/11/30 10:43:02;;;;;;;;;;;6.90;99.90;;;;;;5014681;28;20205;-78
2022/11/30 10:45:29;;;;;;;;;;;7.00;99.90;;;;;;5013331;28;19916;-78
2022/11/30 10:47:54;;;;;;;;;;;7.00;99.90;;;;;;5013455;28;19964;-79
2022/11/30 10:50:23;;;;;;;;;;;7.10;99.90;;;;;;5014082;28;19977;-79
2022/11/30 10:52:53;;;;;;;;;;;7.20;99.90;;;;;;5014844;28;19910;-79
2022/11/30 10:55:37;;;;;;;;;;;7.20;99.90;;;;;;4996311;28;20290;-79
2022/11/30 10:58:09;;;;;;;;;;;7.30;99.90;;;;;;5014138;28;19909;-78
2022/11/30 11:00:35;;;;;;;;;;;7.40;99.90;;;;;;5014341;28;20367;-80
2022/11/30 11:03:00;;;;;;;;;;;7.40;99.90;;;;;;5014617;28;19916;-79
2022/11/30 11:05:28;;;;;;;;;;;7.50;99.90;;;;;;5014401;28;19917;-79
2022/11/30 11:07:57;;;;;;;;;;;7.60;99.90;;;;;;5014417;28;19918;-78
2022/11/30 11:10:43;;;;;;;;;;;7.60;99.90;;;;;;5014254;28;19917;-79
2022/11/30 11:13:29;;;;;;;;;;;7.60;99.90;;;;;;5014270;28;19910;-79
2022/11/30 11:15:56;;;;;;;;;;;7.80;99.90;;;;;;5014755;28;19997;-79
2022/11/30 11:18:24;;;;;;;;;;;7.80;99.90;;;;;;5013952;28;20338;-79
2022/11/30 11:20:58;;;;;;;;;;;7.90;99.90;;;;;;5014366;28;19987;-79
2022/11/30 11:23:42;;;;;;;;;;;8.00;99.90;;;;;;5014084;28;19956;-79
2022/11/30 11:26:18;;;;;;;;;;;8.00;99.90;;;;;;5014283;28;19932;-79
2022/11/30 11:28:45;;;;;;;;;;;8.10;99.90;;;;;;5013366;28;19917;-78
2022/11/30 11:31:29;;;;;;;;;;;8.10;99.90;;;;;;5014394;28;19921;-79
2022/11/30 11:33:54;;;;;;;;;;;8.10;99.90;;;;;;5014777;28;20326;-78
2022/11/30 11:36:25;;;;;;;;;;;8.20;99.90;;;;;;5013683;28;19910;-79
2022/11/30 11:38:50;;;;;;;;;;;8.30;99.90;;;;;;5012824;28;19950;-79
2022/11/30 11:41:33;;;;;;;;;;;8.30;99.90;;;;;;5013661;28;19928;-81
2022/11/30 11:44:08;;;;;;;;;;;8.40;99.90;;;;;;5014002;28;19925;-79
2022/11/30 11:46:36;;;;;;;;;;;8.40;99.90;;;;;;5014129;28;20612;-79
2022/11/30 11:49:05;;;;;;;;;;;8.40;99.90;;;;;;5014353;28;19916;-79
2022/11/30 11:51:32;;;;;;;;;;;8.50;99.90;;;;;;5013993;28;19959;-79
2022/11/30 11:54:02;;;;;;;;;;;8.60;99.90;;;;;;5014258;28;19997;-79
2022/11/30 11:56:30;;;;;;;;;;;8.60;99.90;;;;;;5013657;28;19916;-79
2022/11/30 11:59:08;;;;;;;;;;;8.60;99.90;;;;;;5013828;28;19920;-80
2022/11/30 12:01:45;;;;;;;;;;;8.60;99.90;;;;;;5012714;28;19905;-80
2022/11/30 12:04:26;;;;;;;;;;;8.70;99.90;;;;;;5014408;28;19945;-80
2022/11/30 12:06:52;;;;;;;;;;;8.70;99.90;;;;;;5013957;28;19960;-80
2022/11/30 12:09:23;;;;;;;;;;;8.80;99.90;;;;;;5013478;28;20442;-80
2022/11/30 12:11:48;;;;;;;;;;;8.80;99.90;;;;;;5013848;28;19909;-80
2022/11/30 12:14:15;;;;;;;;;;;8.80;99.90;;;;;;5013382;28;19913;-80
2022/11/30 12:17:07;;;;;;;;;;;8.90;99.90;;;;;;5013715;28;19913;-80
2022/11/30 12:19:41;;;;;;;;;;;9.00;99.90;;;;;;4997248;28;19910;-80
2022/11/30 12:22:06;;;;;;;;;;;9.00;99.90;;;;;;5013886;28;19909;-80
2022/11/30 12:24:46;;;;;;;;;;;9.00;99.90;;;;;;5013190;28;20333;-81
2022/11/30 12:27:12;;;;;;;;;;;9.10;99.90;;;;;;5013416;28;19918;-81
2022/11/30 12:29:53;;;;;;;;;;;9.10;99.90;;;;;;5012515;28;19928;-81
2022/11/30 12:32:32;;;;;;;;;;;9.20;99.90;;;;;;5013282;28;19935;-81
2022/11/30 12:35:16;;;;;;;;;;;9.20;99.90;;;;;;5012642;28;20366;-80
2022/11/30 12:37:56;;;;;;;;;;;9.30;99.90;;;;;;5012433;28;19910;-79
2022/11/30 12:40:40;;;;;;;;;;;9.40;99.90;;;;;;5011824;28;19992;-80
2022/11/30 12:43:32;;;;;;;;;;;9.50;99.90;;;;;;5012113;28;20255;-79
2022/11/30 12:46:21;;;;;;;;;;;9.60;99.90;;;;;;5012292;28;19909;-79
2022/11/30 12:49:05;;;;;;;;;;;9.60;99.90;;;;;;5006294;28;19917;-79
2022/11/30 12:51:38;;;;;;;;;;;9.70;99.90;;;;;;5011331;28;19917;-79
2022/11/30 12:54:12;;;;;;;;;;;9.70;99.90;;;;;;5011798;28;19932;-79
2022/11/30 12:56:47;;;;;;;;;;;9.70;99.90;;;;;;5011700;28;19936;-79
2022/11/30 12:59:26;;;;;;;;;;;9.70;99.90;;;;;;5011327;28;20387;-78
2022/11/30 13:02:03;;;;;;;;;;;9.80;99.90;;;;;;5012034;28;20013;-79
2022/11/30 13:04:34;;;;;;;;;;;9.80;99.90;;;;;;5011424;28;20345;-79
2022/11/30 13:07:02;;;;;;;;;;;9.80;99.90;;;;;;5011816;28;19925;-79
2022/11/30 13:09:30;;;;;;;;;;;9.90;99.90;;;;;;5011367;28;19972;-78
2022/11/30 13:12:04;;;;;;;;;;;9.90;99.90;;;;;;5010766;28;20397;-80
2022/11/30 13:14:32;;;;;;;;;;;10.00;99.90;;;;;;5011491;28;19920;-80
2022/11/30 13:17:02;;;;;;;;;;;10.00;99.90;;;;;;5016418;28;19909;-80
2022/11/30 13:19:27;;;;;;;;;;;10.10;99.90;;;;;;5034256;28;19902;-81
2022/11/30 13:21:56;;;;;;;;;;;10.10;99.90;;;;;;5036567;28;19945;-79
2022/11/30 13:24:27;;;;;;;;;;;10.10;99.90;;;;;;5035853;28;19912;-81
2022/11/30 13:27:19;;;;;;;;;;;10.20;99.90;;;;;;5035995;28;19952;-79
2022/11/30 13:29:48;;;;;;;;;;;10.20;99.90;;;;;;5033733;28;19934;-79
2022/11/30 13:32:14;;;;;;;;;;;10.20;99.90;;;;;;5036378;28;19912;-80
2022/11/30 13:34:40;;;;;;;;;;;10.30;99.90;;;;;;5035918;28;19989;-80
2022/11/30 13:37:12;;;;;;;;;;;10.30;99.90;;;;;;5034866;28;19981;-80
2022/11/30 13:39:45;;;;;;;;;;;10.40;99.90;;;;;;5033432;28;19921;-80
2022/11/30 13:42:31;;;;;;;;;;;10.40;99.90;;;;;;5020205;28;19909;-80
2022/11/30 13:44:59;;;;;;;;;;;10.50;99.90;;;;;;5020646;28;19920;-79
2022/11/30 13:47:27;;;;;;;;;;;10.40;99.90;;;;;;5020335;28;19917;-80
2022/11/30 13:50:16;;;;;;;;;;;10.50;99.90;;;;;;5017177;28;19949;-79
2022/11/30 13:52:57;;;;;;;;;;;10.50;99.90;;;;;;5015270;28;19952;-80
2022/11/30 13:55:35;;;;;;;;;;;10.50;99.90;;;;;;5021700;28;19909;-80
2022/11/30 13:58:00;;;;;;;;;;;10.60;99.90;;;;;;5019653;28;19910;-79
2022/11/30 14:00:29;;;;;;;;;;;10.60;99.90;;;;;;5020316;28;20304;-80
2022/11/30 14:03:13;;;;;;;;;;;10.60;99.90;;;;;;5019778;28;19909;-79
2022/11/30 14:05:40;;;;;;;;;;;10.60;99.90;;;;;;5018616;28;19910;-80
2022/11/30 14:08:05;;;;;;;;;;;10.60;99.90;;;;;;5019556;28;19925;-79
2022/11/30 14:10:31;;;;;;;;;;;10.60;99.90;;;;;;5019167;28;19914;-80
2022/11/30 14:12:57;;;;;;;;;;;10.60;99.90;;;;;;5019490;28;19921;-80
2022/11/30 14:15:30;;;;;;;;;;;10.60;99.90;;;;;;5018919;28;19916;-80
2022/11/30 14:17:56;;;;;;;;;;;10.60;99.90;;;;;;5019128;28;20292;-80
2022/11/30 14:20:24;;;;;;;;;;;10.60;99.90;;;;;;5016336;28;19945;-81
2022/11/30 14:22:49;;;;;;;;;;;10.60;99.90;;;;;;5018526;28;19913;-80
2022/11/30 14:25:16;;;;;;;;;;;10.60;99.90;;;;;;5018235;28;19917;-80
2022/11/30 14:27:42;;;;;;;;;;;10.60;99.90;;;;;;5018699;28;20397;-80
2022/11/30 14:30:18;;;;;;;;;;;10.60;99.90;;;;;;5017706;28;20005;-80
2022/11/30 14:32:48;;;;;;;;;;;10.50;99.90;;;;;;5018222;28;19909;-80
2022/11/30 14:35:15;;;;;;;;;;;10.60;99.90;;;;;;5018035;28;19932;-80
2022/11/30 14:37:45;;;;;;;;;;;10.60;99.90;;;;;;5017472;28;19917;-80